Impacts METAR Board
IDs:

KCVG - Cincinnati Intl, KY, US

Updated at: 2200 UTC 21 May 2022
Potential Impact None Slight Moderate High
Time 21/10Z 21/11Z 21/12Z 21/13Z 21/14Z 21/15Z 21/16Z 21/17Z 21/18Z 21/19Z 21/20Z 21/21Z 21/22Z
Temp71 72 74 75 77 80 82 81 81 73 72 75 66
Dewpt65 66 67 68 69 71 73 73 73 70 70 72 65
Altim29.93 29.96 29.97 29.99 29.99 30.00 30.00 30.00 30.00 30.01 29.99 30.01 30.04
VIS10 10 10 10 10 10 9 9 8 6 8 6 4
CIG-- 75 200 150 -- 200 -- 30 38 100 60 50 100
CoverFEWBKNBKNBKNSCTBKNSCTOVCOVCBKNBKNBKNOVC
FltCatVFRVFRVFRVFRVFRVFRVFRMVFRVFRVFRVFRVFRMVFR
WX----------------VCTSTS BRVCTSTS BRTSRA BR
WDir1901902002002202402102202701801702900
WSpd8 9 11 10 11 14 8 8 6 3 8 11 3
WGst-- -- -- 17 22 19 -- -- -- -- -- -- --
Raw hourly METARs
KCVG 210952Z 19008KT 10SM FEW060 22/18 A2993 RMK AO2 SLP122 T02170183
KCVG 211052Z 19009KT 10SM SCT050 BKN075 BKN130 22/19 A2996 RMK AO2 SLP133 T02220189
KCVG 211152Z 20011KT 10SM FEW080 SCT130 BKN200 23/19 A2997 RMK AO2 SLP136 T02330194 10233 20211 51019
KCVG 211252Z 20010G17KT 10SM SCT050 BKN150 24/20 A2999 RMK AO2 SLP143 T02390200
KCVG 211352Z 22011G22KT 10SM FEW070 SCT150 25/21 A2999 RMK AO2 SLP143 T02500206
KCVG 211452Z 24014G19KT 10SM BKN200 27/22 A3000 RMK AO2 SLP147 T02670217 51010
KCVG 211552Z 21008KT 9SM SCT030 SCT250 28/23 A3000 RMK AO2 SLP146 T02780228
KCVG 211652Z 22008KT 9SM BKN030 OVC037 27/23 A3000 RMK AO2 SLP148 T02720228
KCVG 211752Z 27006KT 8SM VCTS SCT032 BKN038 OVC045 27/23 A3000 RMK AO2 LTG DSNT SE-SW TSE50 SLP149 OCNL BINOVC T02720228 10283 20233 53001
KCVG 211852Z 18003KT 6SM TS BR SCT035 BKN100 23/21 A3001 RMK AO2 LTG DSNT ALQDS RAB1758E32 TSB10E40B42 SLP152 OCNL LTGIC SE-S TS E-S MOV NE P0026 T02280211
KCVG 211952Z 17008KT 8SM VCTS SCT043 BKN060 BKN100 22/21 A2999 RMK AO2 LTG DSNT ALQDS TSE49 SLP146 T02220211
KCVG 212052Z 29011KT 6SM TS BR FEW011 SCT043 BKN050 24/22 A3001 RMK AO2 LTG DSNT N AND NW TSB26E27B31 SLP153 OCNL LTGICCC NW TS NW MOV NE 60026 T02390222 53003
KCVG 212155Z VRB03KT 4SM TSRA BR SCT039 SCT075 OVC100 19/18 A3004 RMK AO2 LTG DSNT ALQDS PRESFR P0001 T01890183 $



Page loaded:  22:04 UTC  |   03:04 PM Pacific  |   04:04 PM Mountain  |   05:04 PM Central  |   06:04 PM Eastern

 

ADVISORIES

FORECASTS

FORECASTS

OBSERVATIONS

USER TOOLS

ABOUT US